createdAt,value
2023-04-06T00:00:01.412Z,96323.13
2023-04-06T00:01:17.567Z,96315.50
2023-04-06T00:02:21.386Z,96326.50
2023-04-06T00:03:40.371Z,96317.19
2023-04-06T00:04:48.185Z,96315.47
2023-04-06T00:06:01.442Z,96316.31
2023-04-06T00:07:10.922Z,96312.09
2023-04-06T00:08:28.551Z,96303.59
2023-04-06T00:09:33.150Z,96308.69
2023-04-06T00:10:44.314Z,96307.81
2023-04-06T00:12:07.333Z,96304.44
2023-04-06T00:13:26.411Z,96308.69
2023-04-06T00:14:40.841Z,96301.91
2023-04-06T00:15:57.042Z,96301.91
2023-04-06T00:17:05.538Z,96299.34
2023-04-06T00:18:15.252Z,96300.22
2023-04-06T00:19:23.858Z,96301.91
2023-04-06T00:20:31.349Z,96303.56
2023-04-06T00:21:47.641Z,96295.13
2023-04-06T00:23:02.757Z,96301.03
2023-04-06T00:24:17.332Z,96300.22
2023-04-06T00:25:29.864Z,96301.91
2023-04-06T00:26:37.430Z,96303.59
2023-04-06T00:27:50.102Z,96299.34
2023-04-06T00:29:03.239Z,96303.56
2023-04-06T00:30:21.827Z,96299.34
2023-04-06T00:31:27.353Z,96297.66
2023-04-06T00:32:34.979Z,96298.50
2023-04-06T00:33:48.006Z,96303.59
2023-04-06T00:35:08.501Z,96299.34
2023-04-06T00:36:34.248Z,96300.19
2023-04-06T00:37:43.945Z,96307.78
2023-04-06T00:38:53.968Z,96305.25
2023-04-06T00:40:05.196Z,96301.84
2023-04-06T00:41:11.487Z,96299.28
2023-04-06T00:42:19.990Z,96295.94
2023-04-06T00:43:27.440Z,96295.91
2023-04-06T00:44:35.604Z,96297.59
2023-04-06T00:45:42.778Z,96292.53
2023-04-06T00:46:59.048Z,96302.66
2023-04-06T00:48:08.056Z,96293.34
2023-04-06T00:49:25.413Z,96295.00
2023-04-06T00:50:30.034Z,96293.28
2023-04-06T00:51:40.328Z,96289.91
2023-04-06T00:52:48.539Z,96284.81
2023-04-06T00:54:00.183Z,96283.97
2023-04-06T00:55:03.933Z,96286.50
2023-04-06T00:56:14.671Z,96282.28
2023-04-06T00:57:23.027Z,96285.66
2023-04-06T00:58:31.327Z,96285.66
2023-04-06T00:59:37.763Z,96278.91
2023-04-06T01:00:48.906Z,96281.44
2023-04-06T01:02:00.626Z,96286.53
2023-04-06T01:03:14.864Z,96283.16
2023-04-06T01:04:25.163Z,96284.00
2023-04-06T01:05:42.357Z,96282.28
2023-04-06T01:07:04.721Z,96284.00
2023-04-06T01:08:12.986Z,96282.28
2023-04-06T01:09:19.494Z,96283.13
2023-04-06T01:10:33.439Z,96280.59
2023-04-06T01:11:40.776Z,96278.88
2023-04-06T01:12:49.545Z,96284.00
2023-04-06T01:14:04.787Z,96278.09
2023-04-06T01:15:13.929Z,96282.28
2023-04-06T01:16:28.825Z,96278.94
2023-04-06T01:17:44.486Z,96276.41
2023-04-06T01:18:52.286Z,96276.41
2023-04-06T01:20:05.423Z,96278.09
2023-04-06T01:21:18.644Z,96273.00
2023-04-06T01:22:40.151Z,96273.88
2023-04-06T01:23:57.701Z,96269.63
2023-04-06T01:25:05.571Z,96273.84
2023-04-06T01:26:17.720Z,96275.56
2023-04-06T01:27:29.167Z,96273.88
2023-04-06T01:28:38.085Z,96269.63
2023-04-06T01:29:46.142Z,96272.19
2023-04-06T01:30:53.302Z,96267.13
2023-04-06T01:32:18.273Z,96268.78
2023-04-06T01:33:42.431Z,96266.25
2023-04-06T01:34:51.690Z,96260.31
2023-04-06T01:35:56.663Z,96258.63
2023-04-06T01:37:07.033Z,96260.31
2023-04-06T01:38:17.972Z,96256.94
2023-04-06T01:39:28.684Z,96255.22
2023-04-06T01:40:36.862Z,96243.41
2023-04-06T01:41:50.956Z,96250.97
2023-04-06T01:42:56.017Z,96256.91
2023-04-06T01:44:10.018Z,96249.28
2023-04-06T01:45:16.286Z,96248.44
2023-04-06T01:46:28.047Z,96247.59
2023-04-06T01:47:33.974Z,96251.81
2023-04-06T01:48:42.885Z,96252.66
2023-04-06T01:49:52.036Z,96248.44
2023-04-06T01:51:17.775Z,96245.91
2023-04-06T01:52:34.490Z,96250.13
2023-04-06T01:53:45.510Z,96246.72
2023-04-06T01:54:53.520Z,96241.66
2023-04-06T01:56:03.278Z,96245.88
2023-04-06T01:57:07.707Z,96239.94
2023-04-06T01:58:16.004Z,96241.66
2023-04-06T01:59:30.517Z,96241.66
2023-04-06T02:00:41.344Z,96247.56
2023-04-06T02:01:48.378Z,96238.25
2023-04-06T02:02:57.140Z,96240.81
2023-04-06T02:04:03.308Z,96239.09
2023-04-06T02:05:17.124Z,96246.72
2023-04-06T02:06:27.965Z,96248.41
2023-04-06T02:07:35.328Z,96241.63
2023-04-06T02:08:57.297Z,96241.63
2023-04-06T02:10:13.342Z,96240.78
2023-04-06T02:11:20.806Z,96244.16
2023-04-06T02:12:28.681Z,96238.22
2023-04-06T02:13:37.470Z,96245.84
2023-04-06T02:14:47.993Z,96241.56
2023-04-06T02:15:55.102Z,96239.88
2023-04-06T02:17:04.608Z,96242.41
2023-04-06T02:18:15.524Z,96243.22
2023-04-06T02:19:25.265Z,96239.88
2023-04-06T02:20:35.173Z,96237.34
2023-04-06T02:21:43.113Z,96234.75
2023-04-06T02:22:50.698Z,96239.81
2023-04-06T02:24:05.828Z,96238.13
2023-04-06T02:25:10.359Z,96233.88
2023-04-06T02:26:26.960Z,96238.13
2023-04-06T02:27:34.253Z,96239.78
2023-04-06T02:28:42.179Z,96238.13
2023-04-06T02:29:46.027Z,96238.13
2023-04-06T02:30:53.049Z,96229.66
2023-04-06T02:32:04.707Z,96227.97
2023-04-06T02:33:16.319Z,96233.88
2023-04-06T02:34:19.929Z,96233.88
2023-04-06T02:35:38.138Z,96233.88
2023-04-06T02:36:42.351Z,96238.97
2023-04-06T02:37:55.541Z,96228.84
2023-04-06T02:39:02.746Z,96235.63
2023-04-06T02:40:14.838Z,96236.47
2023-04-06T02:41:19.646Z,96235.63
2023-04-06T02:42:30.017Z,96233.91
2023-04-06T02:43:39.734Z,96231.38
2023-04-06T02:44:45.978Z,96230.53
2023-04-06T02:45:54.642Z,96226.31
2023-04-06T02:47:10.970Z,96228.84
2023-04-06T02:48:30.332Z,96228.00
2023-04-06T02:49:45.491Z,96226.31
2023-04-06T02:50:55.855Z,96227.16
2023-04-06T02:52:07.657Z,96226.31
2023-04-06T02:54:45.080Z,96226.31
2023-04-06T02:56:02.936Z,96227.16
2023-04-06T02:57:16.644Z,96221.22
2023-04-06T02:58:28.765Z,96224.59
2023-04-06T02:59:41.925Z,96217.81
2023-04-06T03:00:45.578Z,96220.38
2023-04-06T03:01:57.127Z,96215.31
2023-04-06T03:03:06.202Z,96214.44
2023-04-06T03:04:22.762Z,96219.50
2023-04-06T03:05:33.166Z,96222.88
2023-04-06T03:07:12.814Z,96215.22
2023-04-06T03:08:23.298Z,96216.91
2023-04-06T03:09:35.408Z,96220.28
2023-04-06T03:10:47.003Z,96216.91
2023-04-06T03:12:09.264Z,96216.06
2023-04-06T03:13:15.328Z,96216.03
2023-04-06T03:14:29.516Z,96221.13
2023-04-06T03:15:54.725Z,96218.56
2023-04-06T03:17:02.659Z,96217.72
2023-04-06T03:18:15.105Z,96217.72
2023-04-06T03:19:45.775Z,96216.91
2023-04-06T03:20:52.738Z,96211.81
2023-04-06T03:22:07.441Z,96215.19
2023-04-06T03:23:14.227Z,96224.50
2023-04-06T03:24:24.874Z,96221.13
2023-04-06T03:25:32.755Z,96223.63
2023-04-06T03:26:50.663Z,96229.56
2023-04-06T03:28:00.780Z,96222.78
2023-04-06T03:29:08.412Z,96221.09
2023-04-06T03:30:14.108Z,96220.25
2023-04-06T03:31:44.812Z,96218.59
2023-04-06T03:33:03.005Z,96224.50
2023-04-06T03:34:15.980Z,96225.31
2023-04-06T03:35:28.198Z,96227.03
2023-04-06T03:36:41.681Z,96232.09
2023-04-06T03:37:49.556Z,96226.16
2023-04-06T03:39:21.995Z,96222.78
2023-04-06T03:40:36.076Z,96229.53
2023-04-06T03:41:54.303Z,96231.22
2023-04-06T03:43:14.421Z,96224.41
2023-04-06T03:44:19.013Z,96233.75
2023-04-06T03:45:32.542Z,96230.34
2023-04-06T03:46:40.800Z,96227.81
2023-04-06T03:47:48.300Z,96232.03
2023-04-06T03:48:54.821Z,96232.88
2023-04-06T03:50:18.690Z,96231.19
2023-04-06T03:51:27.434Z,96231.16
2023-04-06T03:52:34.842Z,96233.72
2023-04-06T03:53:49.948Z,96237.91
2023-04-06T03:54:59.006Z,96236.25
2023-04-06T03:56:10.616Z,96243.88
2023-04-06T03:57:20.527Z,96236.22
2023-04-06T03:58:37.932Z,96239.59
2023-04-06T03:59:44.433Z,96231.19
2023-04-06T04:01:00.298Z,96236.28
2023-04-06T04:02:08.816Z,96235.44
2023-04-06T04:03:31.947Z,96236.25
2023-04-06T04:04:38.756Z,96235.44
2023-04-06T04:05:49.268Z,96234.56
2023-04-06T04:07:06.762Z,96237.97
2023-04-06T04:08:21.082Z,96239.69
2023-04-06T04:09:28.484Z,96237.97
2023-04-06T04:10:41.915Z,96236.28
2023-04-06T04:11:56.731Z,96242.19
2023-04-06T04:13:10.574Z,96237.97
2023-04-06T04:14:14.552Z,96241.38
2023-04-06T04:15:29.938Z,96239.63
2023-04-06T04:16:39.775Z,96245.56
2023-04-06T04:17:56.917Z,96241.34
2023-04-06T04:19:07.505Z,96244.69
2023-04-06T04:20:25.890Z,96242.97
2023-04-06T04:21:40.888Z,96246.34
2023-04-06T04:22:48.645Z,96243.88
2023-04-06T04:25:28.146Z,96247.13
2023-04-06T04:26:50.640Z,96253.06
2023-04-06T04:28:13.490Z,96246.28
2023-04-06T04:29:47.305Z,96245.41
2023-04-06T04:30:54.973Z,96251.28
2023-04-06T04:32:19.429Z,96250.44
2023-04-06T04:33:54.194Z,96250.44
2023-04-06T04:35:22.982Z,96254.69
2023-04-06T04:36:47.880Z,96253.81
2023-04-06T04:38:01.824Z,96247.91
2023-04-06T04:39:12.672Z,96248.72
2023-04-06T04:40:39.310Z,96249.56
2023-04-06T04:42:01.436Z,96246.19
2023-04-06T04:43:19.432Z,96243.69
2023-04-06T04:44:47.264Z,96254.69
2023-04-06T04:46:18.331Z,96253.88
2023-04-06T04:47:44.990Z,96247.13
2023-04-06T04:48:55.180Z,96255.53
2023-04-06T04:50:14.145Z,96255.53
2023-04-06T04:51:36.062Z,96253.03
2023-04-06T04:52:48.876Z,96253.88
2023-04-06T04:54:05.155Z,96262.34
2023-04-06T04:55:56.346Z,96251.38
2023-04-06T04:57:31.281Z,96259.81
2023-04-06T04:59:21.076Z,96253.88
2023-04-06T05:00:25.863Z,96257.25
2023-04-06T05:01:55.675Z,96252.19
2023-04-06T05:03:08.736Z,96257.28
2023-04-06T05:04:28.395Z,96265.72
2023-04-06T05:05:35.244Z,96260.63
2023-04-06T05:08:41.285Z,96265.75
2023-04-06T05:10:01.371Z,96259.81
2023-04-06T05:11:14.918Z,96263.22
2023-04-06T05:12:33.224Z,96267.44
2023-04-06T05:13:53.306Z,96265.78
2023-04-06T05:15:13.313Z,96266.66
2023-04-06T05:16:50.737Z,96274.28
2023-04-06T05:18:05.381Z,96270.09
2023-04-06T05:19:14.572Z,96272.66
2023-04-06T05:20:47.935Z,96272.66
2023-04-06T05:22:03.962Z,96273.50
2023-04-06T05:23:30.282Z,96271.00
2023-04-06T05:24:58.901Z,96273.50
2023-04-06T05:26:26.750Z,96278.56
2023-04-06T05:27:51.250Z,96280.28
2023-04-06T05:29:03.605Z,96278.66
2023-04-06T05:32:07.538Z,96281.22
2023-04-06T05:33:27.427Z,96286.28
2023-04-06T05:34:57.157Z,96289.66
2023-04-06T05:36:27.645Z,96285.47
2023-04-06T05:37:39.803Z,96289.72
2023-04-06T05:38:57.555Z,96289.75
2023-04-06T05:40:13.796Z,96286.41
2023-04-06T05:41:25.856Z,96287.25
2023-04-06T05:42:53.420Z,96286.44
2023-04-06T05:44:49.992Z,96281.38
2023-04-06T05:46:05.886Z,96281.41
2023-04-06T05:47:30.197Z,96287.38
2023-04-06T05:48:40.715Z,96291.63
2023-04-06T05:50:00.618Z,96288.25
2023-04-06T05:51:15.575Z,96294.19
2023-04-06T05:52:48.012Z,96289.13
2023-04-06T05:54:05.221Z,96295.91
2023-04-06T05:55:23.162Z,96301.88
2023-04-06T05:56:40.601Z,96286.66
2023-04-06T05:57:49.845Z,96288.34
2023-04-06T05:59:13.370Z,96289.22
2023-04-06T06:00:36.978Z,96295.13
2023-04-06T06:01:46.578Z,96292.59
2023-04-06T06:03:07.826Z,96296.00
2023-04-06T06:05:56.387Z,96297.69
2023-04-06T06:07:32.055Z,96303.66
2023-04-06T06:09:03.372Z,96299.41
2023-04-06T06:10:17.567Z,96301.13
2023-04-06T06:11:55.564Z,96297.72
2023-04-06T06:14:44.059Z,96303.66
2023-04-06T06:16:32.541Z,96296.88
2023-04-06T06:20:26.376Z,96295.16
2023-04-06T06:23:08.686Z,96294.31
2023-04-06T06:24:06.191Z,96296.00
2023-04-06T06:25:36.495Z,96301.88
2023-04-06T06:26:59.803Z,96303.56
2023-04-06T06:36:50.502Z,96298.25
2023-04-06T06:38:27.323Z,96305.78
2023-04-06T06:39:55.625Z,96298.09
2023-04-06T06:41:34.420Z,96297.16
2023-04-06T06:44:56.559Z,96292.59
2023-04-06T06:47:56.585Z,96295.78
2023-04-06T06:49:52.829Z,96301.56
2023-04-06T06:51:45.866Z,96286.88
2023-04-06T06:53:16.393Z,96288.44
2023-04-06T06:54:49.825Z,96296.00
2023-04-06T06:56:55.556Z,96283.97
2023-04-06T06:58:48.371Z,96285.47
2023-04-06T07:01:05.904Z,96285.34
2023-04-06T07:03:09.428Z,96283.50
2023-04-06T07:07:04.046Z,96280.56
2023-04-06T07:12:36.753Z,96280.16
2023-04-06T07:18:02.169Z,96282.38
2023-04-06T07:19:14.034Z,96278.00
2023-04-06T07:20:36.276Z,96281.28
2023-04-06T07:22:11.589Z,96269.94
2023-04-06T07:25:28.515Z,96278.09
2023-04-06T07:28:41.718Z,96277.00
2023-04-06T07:30:03.498Z,96287.91
2023-04-06T07:33:29.881Z,96285.97
2023-04-06T07:35:07.823Z,96284.88
2023-04-06T07:37:12.384Z,96283.69
2023-04-06T07:40:42.787Z,96281.66
2023-04-06T07:42:21.049Z,96291.59
2023-04-06T07:44:20.322Z,96275.97
2023-04-06T07:46:02.843Z,96279.00
2023-04-06T07:48:07.798Z,96277.06
2023-04-06T07:49:51.578Z,96276.09
2023-04-06T07:53:24.794Z,96275.44
2023-04-06T07:58:08.066Z,96276.03
2023-04-06T07:59:31.181Z,96281.06
2023-04-06T08:00:58.419Z,96278.06
2023-04-06T08:02:19.619Z,96273.56
2023-04-06T08:04:29.015Z,96279.16
2023-04-06T08:15:14.744Z,96279.44
2023-04-06T08:16:17.074Z,96285.00
2023-04-06T08:17:22.057Z,96285.31
2023-04-06T08:18:24.311Z,96278.00
2023-04-06T08:19:29.211Z,96284.47
2023-04-06T08:20:31.448Z,96274.94
2023-04-06T08:21:36.841Z,96284.41
2023-04-06T08:22:39.067Z,96283.88
2023-04-06T08:23:43.862Z,96274.75
2023-04-06T08:24:46.020Z,96278.53
2023-04-06T08:25:51.055Z,96279.78
2023-04-06T08:26:54.148Z,96282.84
2023-04-06T08:27:59.064Z,96281.69
2023-04-06T08:29:01.321Z,96269.16
2023-04-06T08:30:07.333Z,96273.41
2023-04-06T08:31:14.726Z,96270.81
2023-04-06T08:32:19.512Z,96271.09
2023-04-06T08:33:21.906Z,96274.13
2023-04-06T08:34:26.793Z,96267.78
2023-04-06T08:35:29.187Z,96265.19
2023-04-06T08:36:34.303Z,96272.41
2023-04-06T08:37:36.544Z,96267.94
2023-04-06T08:38:41.300Z,96267.41
2023-04-06T08:39:43.514Z,96270.09
2023-04-06T08:40:49.214Z,96270.44
2023-04-06T08:41:53.127Z,96259.50
2023-04-06T08:42:59.577Z,96262.75
2023-04-06T08:44:03.140Z,96266.34
2023-04-06T08:45:08.985Z,96258.75
2023-04-06T08:46:17.187Z,96256.13
2023-04-06T08:47:24.642Z,96262.84
2023-04-06T08:48:27.970Z,96257.47
2023-04-06T08:49:32.765Z,96265.47
2023-04-06T08:50:35.132Z,96262.38
2023-04-06T08:51:41.377Z,96269.75
2023-04-06T08:52:47.436Z,96259.63
2023-04-06T08:53:51.230Z,96256.84
2023-04-06T08:54:56.618Z,96253.81
2023-04-06T08:56:00.633Z,96260.69
2023-04-06T08:57:06.587Z,96249.63
2023-04-06T08:58:10.140Z,96244.16
2023-04-06T08:59:15.879Z,96238.81
2023-04-06T09:00:19.389Z,96241.16
2023-04-06T09:01:29.831Z,96243.41
2023-04-06T09:02:32.444Z,96236.13
2023-04-06T09:03:41.040Z,96228.31
2023-04-06T09:04:46.580Z,96231.81
2023-04-06T09:05:49.139Z,96229.38
2023-04-06T09:06:54.087Z,96232.09
2023-04-06T09:07:58.993Z,96234.34
2023-04-06T09:09:01.190Z,96234.56
2023-04-06T09:10:06.600Z,96236.38
2023-04-06T09:11:12.460Z,96238.69
2023-04-06T09:12:24.181Z,96219.97
2023-04-06T09:13:29.010Z,96226.19
2023-04-06T09:14:37.919Z,96218.34
2023-04-06T09:15:42.773Z,96222.53
2023-04-06T09:16:47.573Z,96220.09
2023-04-06T09:17:55.024Z,96213.03
2023-04-06T09:19:08.648Z,96210.41
2023-04-06T09:20:12.883Z,96212.06
2023-04-06T09:21:22.886Z,96205.25
2023-04-06T09:22:31.469Z,96205.63
2023-04-06T09:23:33.982Z,96213.63
2023-04-06T09:24:46.710Z,96202.78
2023-04-06T09:25:51.514Z,96210.97
2023-04-06T09:26:56.705Z,96210.97
2023-04-06T09:28:05.854Z,96206.63
2023-04-06T09:29:10.836Z,96219.53
2023-04-06T09:30:18.037Z,96218.78
2023-04-06T09:31:24.921Z,96226.69
2023-04-06T09:32:32.322Z,96223.50
2023-04-06T09:33:39.204Z,96218.53
2023-04-06T09:34:44.367Z,96223.28
2023-04-06T09:35:51.574Z,96219.72
2023-04-06T09:36:57.068Z,96222.88
2023-04-06T09:38:47.327Z,96209.31
2023-04-06T09:39:50.344Z,96206.84
2023-04-06T09:41:01.350Z,96199.28
2023-04-06T09:42:07.061Z,96193.38
2023-04-06T09:43:11.288Z,96196.03
2023-04-06T09:44:17.116Z,96200.72
2023-04-06T09:45:20.132Z,96186.84
2023-04-06T09:46:26.913Z,96193.97
2023-04-06T09:47:32.205Z,96193.84
2023-04-06T09:48:39.159Z,96186.13
2023-04-06T09:49:44.132Z,96186.25
2023-04-06T09:50:46.653Z,96186.97
2023-04-06T09:51:57.631Z,96184.38
2023-04-06T09:53:36.111Z,96197.91
2023-04-06T09:54:41.911Z,96199.53
2023-04-06T09:56:01.369Z,96198.00
2023-04-06T09:57:14.664Z,96192.50
2023-04-06T09:58:20.874Z,96193.78
2023-04-06T09:59:32.333Z,96189.91
2023-04-06T10:00:45.223Z,96184.19
2023-04-06T10:01:49.910Z,96195.53
2023-04-06T10:03:13.369Z,96200.78
2023-04-06T10:04:31.542Z,96200.88
2023-04-06T10:07:03.976Z,96195.59
2023-04-06T10:08:12.945Z,96189.75
2023-04-06T10:09:17.477Z,96172.25
2023-04-06T10:10:23.812Z,96176.72
2023-04-06T10:11:30.564Z,96181.94
2023-04-06T10:12:33.754Z,96172.91
2023-04-06T10:13:40.931Z,96177.69
2023-04-06T10:14:45.176Z,96161.56
2023-04-06T10:15:51.511Z,96163.28
2023-04-06T10:16:58.204Z,96175.22
2023-04-06T10:18:08.884Z,96170.50
2023-04-06T10:19:18.621Z,96170.78
2023-04-06T10:20:32.149Z,96180.09
2023-04-06T10:21:41.310Z,96179.81
2023-04-06T10:22:54.001Z,96170.44
2023-04-06T10:24:03.589Z,96188.25
2023-04-06T10:25:09.891Z,96192.56
2023-04-06T10:26:18.400Z,96192.16
2023-04-06T10:27:32.821Z,96186.50
2023-04-06T10:28:40.489Z,96180.69
2023-04-06T10:29:49.944Z,96170.06
2023-04-06T10:31:03.287Z,96177.00
2023-04-06T10:32:09.164Z,96169.06
2023-04-06T10:33:22.552Z,96169.06
2023-04-06T10:34:39.043Z,96159.91
2023-04-06T10:35:44.722Z,96156.56
2023-04-06T10:36:50.035Z,96158.44
2023-04-06T10:37:54.395Z,96159.88
2023-04-06T10:39:02.181Z,96166.78
2023-04-06T10:40:08.616Z,96166.88
2023-04-06T10:41:17.050Z,96165.84
2023-04-06T10:42:48.540Z,96159.03
2023-04-06T10:44:04.144Z,96167.56
2023-04-06T10:47:04.384Z,96155.81
2023-04-06T10:48:22.690Z,96151.50
2023-04-06T10:49:27.639Z,96148.84
2023-04-06T10:50:34.466Z,96142.66
2023-04-06T10:51:42.771Z,96148.00
2023-04-06T10:52:47.355Z,96147.09
2023-04-06T10:53:53.071Z,96157.03
2023-04-06T10:54:57.865Z,96154.13
2023-04-06T10:56:04.912Z,96160.31
2023-04-06T10:57:07.729Z,96162.69
2023-04-06T10:58:36.330Z,96163.50
2023-04-06T11:01:34.278Z,96153.59
2023-04-06T11:02:37.836Z,96169.66
2023-04-06T11:03:51.233Z,96168.50
2023-04-06T11:05:01.474Z,96181.19
2023-04-06T11:06:07.230Z,96164.91
2023-04-06T11:07:09.588Z,96172.81
2023-04-06T11:08:14.725Z,96171.59
2023-04-06T11:09:30.398Z,96156.88
2023-04-06T11:10:32.957Z,96163.81
2023-04-06T11:11:44.114Z,96161.91
2023-04-06T11:12:47.165Z,96161.16
2023-04-06T11:13:54.666Z,96160.72
2023-04-06T11:15:04.034Z,96151.84
2023-04-06T11:16:10.338Z,96162.56
2023-04-06T11:17:16.228Z,96158.97
2023-04-06T11:18:21.263Z,96160.25
2023-04-06T11:19:29.171Z,96165.66
2023-04-06T11:20:32.422Z,96152.69
2023-04-06T11:21:40.760Z,96151.47
2023-04-06T11:22:54.379Z,96152.63
2023-04-06T11:24:06.726Z,96140.09
2023-04-06T11:25:15.213Z,96148.25
2023-04-06T11:26:21.765Z,96144.09
2023-04-06T11:27:27.154Z,96143.31
2023-04-06T11:28:29.975Z,96141.81
2023-04-06T11:29:38.286Z,96136.81
2023-04-06T11:30:43.862Z,96145.78
2023-04-06T11:31:51.850Z,96133.41
2023-04-06T11:33:04.997Z,96145.78
2023-04-06T11:34:11.898Z,96143.78
2023-04-06T11:35:25.943Z,96133.41
2023-04-06T11:36:31.639Z,96137.72
2023-04-06T11:37:37.360Z,96148.31
2023-04-06T11:38:41.809Z,96149.75
2023-04-06T11:39:52.855Z,96144.53
2023-04-06T11:40:56.272Z,96149.00
2023-04-06T11:42:05.492Z,96150.47
2023-04-06T11:43:13.906Z,96142.81
2023-04-06T11:44:20.243Z,96141.00
2023-04-06T11:45:25.952Z,96136.50
2023-04-06T11:46:28.691Z,96135.03
2023-04-06T11:47:37.634Z,96122.63
2023-04-06T11:48:49.498Z,96137.16
2023-04-06T11:49:55.535Z,96131.38
2023-04-06T11:51:02.917Z,96118.94
2023-04-06T11:52:19.643Z,96105.59
2023-04-06T11:53:25.192Z,96107.88
2023-04-06T11:54:38.334Z,96104.06
2023-04-06T11:55:48.577Z,96114.38
2023-04-06T11:56:54.219Z,96117.97
2023-04-06T11:57:56.950Z,96120.41
2023-04-06T11:59:03.650Z,96118.44
2023-04-06T12:00:11.270Z,96111.97
2023-04-06T12:01:14.509Z,96100.34
2023-04-06T12:02:21.847Z,96106.44
2023-04-06T12:03:27.174Z,96106.03
2023-04-06T12:04:30.128Z,96114.94
2023-04-06T12:05:38.981Z,96105.56
2023-04-06T12:06:48.011Z,96107.09
2023-04-06T12:07:53.836Z,96104.00
2023-04-06T12:08:59.576Z,96119.09
2023-04-06T12:10:07.611Z,96115.13
2023-04-06T12:11:13.528Z,96115.09
2023-04-06T12:12:18.701Z,96114.75
2023-04-06T12:13:24.650Z,96101.34
2023-04-06T12:14:27.817Z,96100.03
2023-04-06T12:15:33.714Z,96107.78
2023-04-06T12:16:36.650Z,96096.81
2023-04-06T12:17:42.323Z,96091.34
2023-04-06T12:18:47.832Z,96093.00
2023-04-06T12:19:51.337Z,96099.50
2023-04-06T12:20:56.953Z,96087.94
2023-04-06T12:22:05.873Z,96083.94
2023-04-06T12:23:11.460Z,96085.41
2023-04-06T12:24:15.261Z,96080.16
2023-04-06T12:25:21.248Z,96085.44
2023-04-06T12:26:27.063Z,96096.06
2023-04-06T12:27:32.893Z,96088.44
2023-04-06T12:28:39.058Z,96087.03
2023-04-06T12:29:44.673Z,96083.41
2023-04-06T12:30:47.788Z,96089.31
2023-04-06T12:31:54.664Z,96065.25
2023-04-06T12:33:00.894Z,96081.22
2023-04-06T12:34:07.635Z,96086.25
2023-04-06T12:35:17.019Z,96089.31
2023-04-06T12:36:24.277Z,96099.00
2023-04-06T12:37:32.524Z,96089.72
2023-04-06T12:38:41.658Z,96078.69
2023-04-06T12:39:48.342Z,96072.63
2023-04-06T12:40:51.417Z,96074.47
2023-04-06T12:41:57.560Z,96082.59
2023-04-06T12:43:03.137Z,96060.19
2023-04-06T12:44:08.686Z,96068.13
2023-04-06T12:45:12.731Z,96080.25
2023-04-06T12:46:18.306Z,96072.69
2023-04-06T12:47:24.122Z,96073.91
2023-04-06T12:48:28.751Z,96087.38
2023-04-06T12:49:34.859Z,96073.91
2023-04-06T12:50:40.457Z,96073.56
2023-04-06T12:51:43.439Z,96082.53
2023-04-06T12:52:51.732Z,96081.19
2023-04-06T12:53:54.797Z,96083.41
2023-04-06T12:55:00.986Z,96058.78
2023-04-06T12:56:07.176Z,96071.41
2023-04-06T12:57:12.616Z,96065.00
2023-04-06T12:58:18.790Z,96055.91
2023-04-06T12:59:24.416Z,96057.78
2023-04-06T13:00:27.792Z,96045.38
2023-04-06T13:01:34.416Z,96052.09
2023-04-06T13:02:40.189Z,96066.09
2023-04-06T13:03:44.309Z,96055.34
2023-04-06T13:04:49.819Z,96053.97
2023-04-06T13:05:53.324Z,96045.59
2023-04-06T13:07:01.716Z,96041.59
2023-04-06T13:08:09.364Z,96016.13
2023-04-06T13:09:12.112Z,96028.16
2023-04-06T13:10:17.580Z,96038.81
2023-04-06T13:11:23.110Z,96037.72
2023-04-06T13:12:29.161Z,96029.38
2023-04-06T13:13:32.297Z,96022.91
2023-04-06T13:14:38.082Z,96026.63
2023-04-06T13:15:41.129Z,96020.22
2023-04-06T13:16:47.579Z,96028.63
2023-04-06T13:17:55.212Z,96019.41
2023-04-06T13:19:02.908Z,96016.59
2023-04-06T13:20:09.708Z,96031.09
2023-04-06T13:21:16.146Z,96029.16
2023-04-06T13:22:21.534Z,96016.91
2023-04-06T13:23:27.718Z,96022.34
2023-04-06T13:24:32.981Z,96018.63
2023-04-06T13:25:36.335Z,95996.81
2023-04-06T13:26:42.384Z,96015.44
2023-04-06T13:27:50.141Z,96022.81
2023-04-06T13:28:57.644Z,96023.53
2023-04-06T13:30:00.548Z,96012.00
2023-04-06T13:31:07.524Z,96031.72
2023-04-06T13:32:11.758Z,96022.28
2023-04-06T13:33:17.454Z,96024.56
2023-04-06T13:34:20.460Z,96041.81
2023-04-06T13:35:26.481Z,96032.63
2023-04-06T13:36:35.386Z,96035.63
2023-04-06T13:39:06.433Z,96034.78
2023-04-06T13:40:13.603Z,96036.28
2023-04-06T13:41:22.457Z,96036.00
2023-04-06T13:42:27.723Z,96040.06
2023-04-06T13:43:30.970Z,96037.72
2023-04-06T13:44:35.987Z,96038.97
2023-04-06T13:45:39.215Z,96035.53
2023-04-06T13:46:44.570Z,96027.78
2023-04-06T13:47:47.369Z,96023.09
2023-04-06T13:48:52.864Z,96014.00
2023-04-06T13:49:59.451Z,96011.97
2023-04-06T13:51:10.150Z,96008.00
2023-04-06T13:52:15.893Z,96007.13
2023-04-06T13:53:18.454Z,96001.94
2023-04-06T13:54:27.024Z,95997.59
2023-04-06T13:55:29.829Z,96001.53
2023-04-06T13:56:35.103Z,95994.47
2023-04-06T13:57:38.057Z,95992.06
2023-04-06T13:58:43.566Z,95985.69
2023-04-06T13:59:49.464Z,95994.75
2023-04-06T14:00:55.277Z,95983.53
2023-04-06T14:02:00.856Z,95987.88
2023-04-06T14:03:03.659Z,95985.25
2023-04-06T14:04:09.330Z,95997.28
2023-04-06T14:05:12.891Z,96013.16
2023-04-06T14:06:30.307Z,96030.94
2023-04-06T14:07:36.559Z,96014.69
2023-04-06T14:08:39.368Z,95994.06
2023-04-06T14:09:47.636Z,95988.69
2023-04-06T14:10:52.756Z,95996.69
2023-04-06T14:11:58.921Z,95995.25
2023-04-06T14:13:01.768Z,96011.69
2023-04-06T14:14:07.386Z,95979.56
2023-04-06T14:15:12.889Z,95980.94
2023-04-06T14:16:20.964Z,95979.41
2023-04-06T14:17:26.174Z,95987.50
2023-04-06T14:18:32.164Z,96003.09
2023-04-06T14:19:37.503Z,96011.66
2023-04-06T14:20:40.204Z,96004.31
2023-04-06T14:21:45.675Z,95989.28
2023-04-06T14:22:50.568Z,96013.00
2023-04-06T14:23:58.063Z,95991.38
2023-04-06T14:25:08.327Z,95982.06
2023-04-06T14:26:14.380Z,95987.31
2023-04-06T14:27:20.045Z,95980.22
2023-04-06T14:28:23.456Z,95988.63
2023-04-06T14:29:28.820Z,95994.47
2023-04-06T14:30:32.321Z,95991.66
2023-04-06T14:31:38.181Z,95996.72
2023-04-06T14:32:41.292Z,95996.63
2023-04-06T14:33:47.065Z,95988.84
2023-04-06T14:34:50.163Z,95984.63
2023-04-06T14:35:55.433Z,95982.94
2023-04-06T14:37:00.857Z,96001.84
2023-04-06T14:38:03.748Z,95993.53
2023-04-06T14:39:11.145Z,95990.88
2023-04-06T14:40:19.404Z,95993.00
2023-04-06T14:41:23.980Z,95985.50
2023-04-06T14:42:29.568Z,95979.31
2023-04-06T14:43:32.412Z,95992.19
2023-04-06T14:44:38.472Z,95984.38
2023-04-06T14:45:41.229Z,95980.44
2023-04-06T14:46:46.806Z,95982.53
2023-04-06T14:47:49.860Z,95984.09
2023-04-06T14:48:55.366Z,95975.59
2023-04-06T14:50:00.785Z,95977.41
2023-04-06T14:51:07.398Z,95996.31
2023-04-06T14:52:12.969Z,95989.34
2023-04-06T14:53:15.664Z,95992.63
2023-04-06T14:54:21.204Z,95981.00
2023-04-06T14:55:26.485Z,95984.41
2023-04-06T14:56:32.721Z,95991.78
2023-04-06T14:57:35.278Z,95996.09
2023-04-06T14:58:49.167Z,95996.38
2023-04-06T14:59:54.891Z,95998.84
2023-04-06T15:01:01.107Z,95993.88
2023-04-06T15:02:04.730Z,95997.47
2023-04-06T15:03:10.368Z,95994.78
2023-04-06T15:04:13.003Z,95997.84
2023-04-06T15:05:18.192Z,96002.38
2023-04-06T15:06:22.149Z,96001.41
2023-04-06T15:07:27.204Z,96003.66